createdAt,value
2023-03-07T00:00:13.387Z,89.17
2023-03-07T00:02:42.125Z,89.24
2023-03-07T00:05:10.817Z,89.33
2023-03-07T00:07:39.068Z,90.02
2023-03-07T00:10:09.292Z,89.84
2023-03-07T00:12:38.978Z,89.63
2023-03-07T00:15:10.141Z,90.33
2023-03-07T00:17:38.911Z,90.73
2023-03-07T00:20:10.870Z,90.48
2023-03-07T00:22:39.148Z,90.57
2023-03-07T00:25:08.380Z,90.66
2023-03-07T00:27:38.317Z,90.42
2023-03-07T00:30:08.053Z,90.23
2023-03-07T00:32:36.426Z,89.61
2023-03-07T00:35:04.997Z,89.16
2023-03-07T00:37:33.283Z,89.71
2023-03-07T00:40:01.568Z,89.81
2023-03-07T00:42:29.924Z,89.19
2023-03-07T00:44:59.611Z,89.36
2023-03-07T00:47:27.911Z,89.22
2023-03-07T00:49:56.240Z,88.90
2023-03-07T00:52:24.900Z,88.57
2023-03-07T00:54:53.201Z,88.81
2023-03-07T00:57:21.806Z,88.84
2023-03-07T00:59:50.137Z,89.02
2023-03-07T01:02:19.835Z,88.77
2023-03-07T01:04:48.420Z,88.04
2023-03-07T01:07:16.684Z,87.65
2023-03-07T01:09:47.226Z,87.92
2023-03-07T01:12:15.610Z,87.68
2023-03-07T01:14:43.894Z,87.91
2023-03-07T01:17:12.369Z,88.00
2023-03-07T01:19:42.145Z,87.37
2023-03-07T01:22:10.495Z,87.39
2023-03-07T01:24:40.227Z,87.04
2023-03-07T01:27:08.557Z,87.01
2023-03-07T01:29:36.950Z,86.90
2023-03-07T01:32:05.482Z,86.88
2023-03-07T01:34:34.078Z,86.87
2023-03-07T01:37:03.880Z,87.10
2023-03-07T01:39:32.809Z,87.60
2023-03-07T01:42:08.562Z,88.29
2023-03-07T01:45:02.576Z,88.48
2023-03-07T01:47:48.474Z,87.99
2023-03-07T01:50:19.507Z,87.91
2023-03-07T01:52:51.534Z,87.74
2023-03-07T01:55:23.332Z,87.59
2023-03-07T01:57:56.407Z,87.64
2023-03-07T02:00:29.798Z,87.66
2023-03-07T02:03:07.966Z,86.78
2023-03-07T02:05:41.108Z,86.21
2023-03-07T02:08:15.285Z,86.00
2023-03-07T02:10:44.696Z,86.13
2023-03-07T02:13:13.062Z,86.04
2023-03-07T02:15:42.186Z,86.05
2023-03-07T02:18:11.138Z,86.18
2023-03-07T02:20:48.266Z,85.94
2023-03-07T02:23:26.722Z,86.34
2023-03-07T02:26:01.554Z,86.69
2023-03-07T02:28:31.908Z,87.06
2023-03-07T02:31:03.269Z,87.76
2023-03-07T02:33:34.832Z,88.34
2023-03-07T02:36:12.094Z,89.07
2023-03-07T02:38:48.963Z,89.76
2023-03-07T02:41:22.166Z,90.25
2023-03-07T02:43:51.844Z,89.95
2023-03-07T02:46:20.408Z,90.34
2023-03-07T02:48:48.961Z,90.21
2023-03-07T02:51:18.116Z,90.33
2023-03-07T02:53:47.456Z,90.68
2023-03-07T02:56:15.911Z,90.79
2023-03-07T02:58:44.572Z,90.45
2023-03-07T03:01:14.497Z,90.69
2023-03-07T03:03:43.100Z,90.17
2023-03-07T03:06:11.502Z,90.15
2023-03-07T03:08:39.761Z,90.46
2023-03-07T03:11:08.238Z,90.48
2023-03-07T03:13:39.002Z,91.06
2023-03-07T03:16:08.926Z,91.55
2023-03-07T03:18:39.145Z,91.54
2023-03-07T03:21:11.716Z,91.14
2023-03-07T03:23:40.862Z,91.24
2023-03-07T03:26:12.497Z,90.57
2023-03-07T03:28:41.353Z,91.06
2023-03-07T03:31:15.156Z,90.67
2023-03-07T03:33:46.150Z,87.46
2023-03-07T03:36:18.015Z,83.84
2023-03-07T03:38:49.673Z,83.71
2023-03-07T03:41:18.149Z,83.50
2023-03-07T03:43:49.065Z,83.89
2023-03-07T03:46:19.570Z,84.65
2023-03-07T03:48:53.871Z,84.90
2023-03-07T03:51:25.645Z,84.60
2023-03-07T03:53:57.581Z,84.62
2023-03-07T03:56:28.258Z,85.10
2023-03-07T03:58:58.589Z,85.21
2023-03-07T04:01:28.256Z,86.40
2023-03-07T04:03:59.840Z,88.03
2023-03-07T04:06:31.341Z,88.01
2023-03-07T04:09:00.541Z,87.83
2023-03-07T04:11:28.968Z,87.75
2023-03-07T04:13:57.392Z,87.92
2023-03-07T04:16:25.926Z,88.47
2023-03-07T04:18:55.417Z,89.19
2023-03-07T04:21:25.425Z,90.57
2023-03-07T04:23:58.330Z,90.84
2023-03-07T04:26:30.034Z,91.04
2023-03-07T04:28:59.567Z,91.08
2023-03-07T04:31:32.572Z,91.07
2023-03-07T04:34:03.319Z,90.99
2023-03-07T04:36:33.732Z,90.27
2023-03-07T04:39:02.165Z,90.49
2023-03-07T04:41:32.466Z,90.70
2023-03-07T04:44:05.483Z,90.04
2023-03-07T04:46:33.820Z,89.34
2023-03-07T04:49:02.177Z,89.66
2023-03-07T04:51:30.859Z,89.04
2023-03-07T04:54:00.543Z,89.33
2023-03-07T04:56:29.073Z,88.39
2023-03-07T04:58:58.441Z,88.69
2023-03-07T05:01:26.827Z,90.06
2023-03-07T05:03:56.538Z,90.46
2023-03-07T05:06:25.741Z,90.86
2023-03-07T05:08:54.233Z,91.00
2023-03-07T05:11:23.943Z,91.17
2023-03-07T05:13:53.681Z,91.29
2023-03-07T05:16:23.809Z,91.23
2023-03-07T05:18:52.040Z,92.38
2023-03-07T05:21:20.890Z,93.59
2023-03-07T05:23:49.827Z,94.24
2023-03-07T05:26:18.187Z,94.29
2023-03-07T05:28:48.221Z,94.40
2023-03-07T05:31:18.460Z,94.76
2023-03-07T05:33:47.536Z,94.45
2023-03-07T05:36:16.523Z,94.74
2023-03-07T05:38:45.078Z,94.02
2023-03-07T05:41:13.973Z,94.20
2023-03-07T05:43:43.881Z,93.55
2023-03-07T05:46:13.660Z,92.36
2023-03-07T05:48:42.150Z,92.41
2023-03-07T05:51:11.500Z,92.29
2023-03-07T05:53:40.155Z,91.83
2023-03-07T05:56:09.164Z,91.67
2023-03-07T05:58:38.882Z,92.61
2023-03-07T06:01:07.503Z,92.66
2023-03-07T06:03:37.591Z,92.39
2023-03-07T06:06:06.574Z,93.90
2023-03-07T06:08:34.965Z,94.04
2023-03-07T06:11:03.239Z,94.29
2023-03-07T06:13:31.996Z,94.20
2023-03-07T06:16:00.341Z,94.49
2023-03-07T06:18:28.955Z,94.04
2023-03-07T06:21:00.960Z,93.71
2023-03-07T06:23:35.153Z,94.16
2023-03-07T06:26:04.873Z,94.03
2023-03-07T06:28:33.551Z,93.85
2023-03-07T06:31:08.450Z,92.65
2023-03-07T06:33:37.040Z,93.21
2023-03-07T06:36:09.963Z,92.81
2023-03-07T06:38:40.142Z,92.41
2023-03-07T06:41:09.172Z,92.46
2023-03-07T06:43:37.601Z,92.67
2023-03-07T06:46:07.438Z,92.58
2023-03-07T06:48:39.804Z,91.93
2023-03-07T06:51:13.529Z,93.30
2023-03-07T06:53:43.940Z,92.57
2023-03-07T06:56:12.410Z,91.82
2023-03-07T06:58:41.683Z,92.41
2023-03-07T07:01:18.557Z,92.71
2023-03-07T07:03:49.056Z,92.80
2023-03-07T07:06:19.367Z,92.63
2023-03-07T07:08:48.977Z,93.40
2023-03-07T07:11:17.466Z,92.80
2023-03-07T07:13:46.601Z,92.98
2023-03-07T07:16:20.153Z,93.15
2023-03-07T07:18:52.154Z,92.76
2023-03-07T07:21:22.048Z,92.11
2023-03-07T07:23:50.434Z,93.18
2023-03-07T07:26:19.551Z,94.44
2023-03-07T07:28:48.128Z,94.80
2023-03-07T07:31:16.546Z,94.71
2023-03-07T07:33:46.397Z,95.24
2023-03-07T07:36:16.169Z,95.57
2023-03-07T07:38:45.932Z,95.68
2023-03-07T07:41:14.298Z,96.12
2023-03-07T07:43:42.808Z,96.35
2023-03-07T07:46:18.456Z,96.00
2023-03-07T07:48:48.300Z,96.39
2023-03-07T07:51:18.291Z,96.01
2023-03-07T07:53:48.279Z,95.55
2023-03-07T07:56:17.173Z,94.69
2023-03-07T07:58:45.472Z,94.70
2023-03-07T08:01:16.724Z,94.14
2023-03-07T08:03:45.364Z,93.68
2023-03-07T08:06:14.393Z,92.80
2023-03-07T08:08:43.106Z,93.16
2023-03-07T08:11:13.514Z,92.89
2023-03-07T08:13:43.805Z,92.23
2023-03-07T08:16:14.876Z,92.52
2023-03-07T08:18:44.426Z,93.07
2023-03-07T08:21:13.112Z,92.93
2023-03-07T08:23:41.475Z,92.16
2023-03-07T08:26:14.215Z,92.75
2023-03-07T08:28:43.651Z,92.21
2023-03-07T08:31:14.751Z,92.02
2023-03-07T08:33:44.294Z,92.71
2023-03-07T08:36:12.638Z,93.14
2023-03-07T08:38:40.958Z,92.75
2023-03-07T08:41:10.999Z,93.17
2023-03-07T08:43:40.719Z,92.86
2023-03-07T08:46:09.102Z,93.36
2023-03-07T08:48:37.429Z,93.59
2023-03-07T08:51:08.351Z,93.16
2023-03-07T08:53:38.770Z,92.82
2023-03-07T08:56:09.092Z,93.55
2023-03-07T08:58:38.350Z,93.21
2023-03-07T09:01:09.242Z,93.33
2023-03-07T09:03:38.159Z,93.03
2023-03-07T09:06:11.134Z,93.49
2023-03-07T09:08:39.531Z,92.70
2023-03-07T09:11:08.705Z,93.22
2023-03-07T09:13:49.725Z,92.01
2023-03-07T09:16:22.391Z,92.04
2023-03-07T09:18:51.036Z,92.19
2023-03-07T09:21:19.386Z,91.61
2023-03-07T09:23:47.719Z,91.73
2023-03-07T09:26:16.240Z,92.15
2023-03-07T09:28:44.641Z,92.30
2023-03-07T09:31:16.294Z,91.91
2023-03-07T09:33:47.069Z,92.32
2023-03-07T09:36:16.239Z,91.31
2023-03-07T09:38:45.037Z,90.01
2023-03-07T09:41:52.191Z,89.45
2023-03-07T09:44:34.541Z,88.72
2023-03-07T09:47:55.125Z,87.16
2023-03-07T09:50:33.871Z,86.35
2023-03-07T09:53:05.044Z,84.79
2023-03-07T09:55:34.054Z,83.96
2023-03-07T09:58:07.522Z,83.31
2023-03-07T10:00:40.333Z,83.36
2023-03-07T10:03:20.484Z,82.22
2023-03-07T10:05:52.985Z,82.34
2023-03-07T10:08:23.716Z,83.45
2023-03-07T10:11:05.010Z,82.15
2023-03-07T10:13:50.422Z,82.96
2023-03-07T10:16:29.819Z,83.63
2023-03-07T10:19:11.599Z,84.64
2023-03-07T10:21:50.748Z,85.28
2023-03-07T10:25:04.018Z,87.18
2023-03-07T10:27:32.967Z,87.88
2023-03-07T10:30:12.158Z,87.73
2023-03-07T10:32:45.661Z,87.77
2023-03-07T10:35:21.046Z,87.74
2023-03-07T10:37:53.221Z,87.70
2023-03-07T10:40:28.062Z,87.56
2023-03-07T10:42:56.756Z,89.79
2023-03-07T10:45:25.197Z,91.15
2023-03-07T10:47:53.591Z,90.14
2023-03-07T10:50:38.971Z,90.14
2023-03-07T10:53:24.127Z,90.53
2023-03-07T10:55:52.542Z,90.58
2023-03-07T10:58:24.478Z,90.90
2023-03-07T11:01:16.706Z,91.56
2023-03-07T11:03:54.252Z,91.47
2023-03-07T11:06:34.320Z,91.40
2023-03-07T11:09:25.855Z,90.84
2023-03-07T11:11:58.387Z,91.44
2023-03-07T11:14:29.328Z,91.84
2023-03-07T11:17:00.608Z,92.26
2023-03-07T11:19:40.532Z,91.83
2023-03-07T11:22:28.486Z,91.80
2023-03-07T11:25:03.373Z,91.47
2023-03-07T11:27:40.781Z,91.86
2023-03-07T11:30:26.175Z,91.91
2023-03-07T11:33:03.337Z,92.41
2023-03-07T11:35:54.394Z,92.73
2023-03-07T11:38:42.638Z,93.49
2023-03-07T11:41:17.840Z,93.35
2023-03-07T11:44:06.903Z,93.20
2023-03-07T11:47:00.921Z,93.48
2023-03-07T11:49:45.266Z,93.71
2023-03-07T11:52:39.267Z,94.87
2023-03-07T11:55:25.824Z,95.12
2023-03-07T11:58:14.384Z,95.02
2023-03-07T12:00:58.527Z,94.48
2023-03-07T12:04:06.970Z,93.16
2023-03-07T12:06:40.946Z,92.47
2023-03-07T12:09:32.482Z,91.83
2023-03-07T12:12:41.617Z,90.94
2023-03-07T12:15:29.336Z,90.49
2023-03-07T12:18:25.849Z,90.82
2023-03-07T12:21:05.462Z,91.39
2023-03-07T12:23:39.100Z,92.08
2023-03-07T12:26:16.952Z,92.03
2023-03-07T12:28:50.995Z,91.90
2023-03-07T12:31:28.147Z,91.89
2023-03-07T12:34:05.123Z,91.79
2023-03-07T12:36:40.558Z,90.85
2023-03-07T12:39:20.634Z,90.32
2023-03-07T12:41:59.631Z,90.00
2023-03-07T12:44:41.165Z,90.86
2023-03-07T12:47:22.999Z,90.87
2023-03-07T12:49:58.051Z,90.67
2023-03-07T12:52:41.485Z,91.19
2023-03-07T12:55:21.500Z,90.02
2023-03-07T12:57:59.171Z,89.86
2023-03-07T13:00:27.578Z,89.26
2023-03-07T13:03:02.559Z,88.73
2023-03-07T13:05:32.114Z,87.14
2023-03-07T13:08:01.285Z,86.80
2023-03-07T13:10:31.537Z,86.93
2023-03-07T13:12:59.860Z,85.64
2023-03-07T13:16:04.855Z,85.00
2023-03-07T13:18:34.609Z,85.19
2023-03-07T13:21:16.623Z,85.25
2023-03-07T13:23:45.041Z,85.09
2023-03-07T13:26:15.223Z,86.57
2023-03-07T13:28:51.629Z,87.18
2023-03-07T13:31:44.768Z,87.42
2023-03-07T13:34:48.873Z,88.48
2023-03-07T13:37:59.952Z,90.44
2023-03-07T13:40:55.712Z,90.92
2023-03-07T13:43:51.163Z,90.76
2023-03-07T13:46:58.885Z,90.84
2023-03-07T13:49:49.646Z,90.96
2023-03-07T13:52:45.240Z,91.65
2023-03-07T13:55:29.523Z,91.45
2023-03-07T13:58:05.501Z,90.87
2023-03-07T14:00:39.428Z,91.07
2023-03-07T14:03:33.039Z,92.51
2023-03-07T14:06:10.036Z,92.71
2023-03-07T14:08:39.247Z,91.78
2023-03-07T14:11:16.026Z,91.26
2023-03-07T14:14:18.947Z,90.19
2023-03-07T14:17:20.211Z,89.37
2023-03-07T14:20:02.105Z,88.87
2023-03-07T14:22:49.070Z,88.22
2023-03-07T14:25:21.310Z,87.91
2023-03-07T14:27:55.503Z,86.98
2023-03-07T14:30:25.855Z,87.15
2023-03-07T14:32:54.269Z,86.01
2023-03-07T14:35:37.392Z,86.01
2023-03-07T14:38:10.099Z,85.57
2023-03-07T14:40:50.520Z,85.60
2023-03-07T14:43:45.663Z,85.48
2023-03-07T14:46:25.070Z,86.27
2023-03-07T14:49:14.666Z,85.08
2023-03-07T14:51:45.692Z,85.63
2023-03-07T14:54:21.544Z,84.74
2023-03-07T14:56:53.234Z,84.68
2023-03-07T14:59:28.563Z,84.61
2023-03-07T15:02:00.101Z,84.45
2023-03-07T15:04:31.525Z,84.93
2023-03-07T15:07:03.807Z,85.35
2023-03-07T15:09:36.190Z,85.08
2023-03-07T15:12:08.445Z,85.07
2023-03-07T15:14:45.424Z,85.36
2023-03-07T15:17:18.531Z,84.86
2023-03-07T15:19:50.542Z,84.41
2023-03-07T15:22:25.177Z,84.34
2023-03-07T15:24:55.755Z,84.59
2023-03-07T15:27:26.407Z,84.27
2023-03-07T15:29:56.013Z,84.94
2023-03-07T15:32:36.639Z,85.61
2023-03-07T15:35:15.997Z,85.55
2023-03-07T15:37:56.487Z,85.59
2023-03-07T15:40:31.427Z,85.85
2023-03-07T15:43:14.844Z,86.00
2023-03-07T15:45:45.261Z,85.62
2023-03-07T15:48:26.184Z,86.12
2023-03-07T15:50:57.274Z,85.95
2023-03-07T15:53:30.067Z,84.02
2023-03-07T15:56:03.355Z,83.09
2023-03-07T15:58:33.703Z,82.29
2023-03-07T16:01:20.652Z,81.31
2023-03-07T16:03:53.690Z,81.18
2023-03-07T16:06:37.013Z,80.80
2023-03-07T16:09:05.993Z,80.37
2023-03-07T16:11:38.027Z,80.34
2023-03-07T16:14:06.673Z,79.62
2023-03-07T16:16:35.183Z,79.14
2023-03-07T16:19:03.623Z,78.61
2023-03-07T16:21:32.009Z,78.53
2023-03-07T16:24:00.307Z,78.60
2023-03-07T16:26:29.484Z,78.41
2023-03-07T16:29:01.829Z,78.39
2023-03-07T16:31:30.367Z,78.36
2023-03-07T16:33:58.800Z,77.08
2023-03-07T16:36:27.172Z,77.36
2023-03-07T16:38:55.494Z,77.44
2023-03-07T16:41:24.166Z,76.92
2023-03-07T16:43:55.110Z,76.47
2023-03-07T16:46:25.914Z,75.96
2023-03-07T16:48:54.312Z,75.87
2023-03-07T16:51:26.017Z,75.49
2023-03-07T16:53:56.716Z,76.43
2023-03-07T16:56:30.224Z,75.73
2023-03-07T16:58:59.385Z,75.42
2023-03-07T17:01:29.571Z,73.31
2023-03-07T17:03:57.936Z,73.55
2023-03-07T17:06:38.472Z,74.25
2023-03-07T17:09:09.518Z,75.29
2023-03-07T17:11:41.011Z,76.82
2023-03-07T17:14:14.255Z,78.00
2023-03-07T17:16:47.006Z,78.05
2023-03-07T17:19:25.933Z,78.33
2023-03-07T17:21:54.265Z,79.55
2023-03-07T17:24:22.710Z,79.40
2023-03-07T17:26:53.484Z,78.48
2023-03-07T17:29:28.272Z,78.85
2023-03-07T17:31:58.009Z,78.42
2023-03-07T17:34:28.791Z,78.38
2023-03-07T17:36:57.538Z,78.05
2023-03-07T17:39:26.446Z,77.79
2023-03-07T17:41:54.808Z,77.43
2023-03-07T17:44:23.165Z,77.04
2023-03-07T17:46:52.703Z,77.32
2023-03-07T17:49:23.119Z,77.04
2023-03-07T17:51:52.953Z,76.85
2023-03-07T17:54:21.514Z,77.89
2023-03-07T17:56:49.975Z,78.44
2023-03-07T17:59:18.298Z,77.72
2023-03-07T18:01:46.801Z,77.64
2023-03-07T18:04:15.545Z,77.40
2023-03-07T18:06:45.203Z,77.35
2023-03-07T18:09:15.306Z,77.52
2023-03-07T18:11:43.756Z,77.12
2023-03-07T18:14:12.668Z,76.53
2023-03-07T18:16:41.019Z,77.19
2023-03-07T18:19:20.458Z,75.99
2023-03-07T18:21:55.625Z,77.08
2023-03-07T18:24:27.352Z,77.20
2023-03-07T18:26:56.877Z,76.87
2023-03-07T18:29:25.880Z,77.48
2023-03-07T18:31:54.447Z,77.37
2023-03-07T18:34:24.753Z,76.98
2023-03-07T18:36:54.882Z,76.87
2023-03-07T18:39:24.578Z,76.33
2023-03-07T18:41:53.124Z,76.41
2023-03-07T18:44:21.572Z,76.68
2023-03-07T18:46:49.930Z,76.91
2023-03-07T18:49:18.349Z,77.01
2023-03-07T18:51:48.358Z,76.78
2023-03-07T18:54:18.226Z,76.47
2023-03-07T18:56:47.805Z,76.71
2023-03-07T18:59:17.283Z,76.72
2023-03-07T19:01:50.150Z,76.63
2023-03-07T19:04:20.273Z,75.88
2023-03-07T19:06:48.649Z,75.75
2023-03-07T19:09:21.373Z,75.10
2023-03-07T19:11:49.714Z,74.15
2023-03-07T19:14:18.179Z,73.32
2023-03-07T19:16:46.713Z,73.87
2023-03-07T19:19:15.005Z,73.81
2023-03-07T19:21:43.457Z,73.57
2023-03-07T19:24:13.169Z,73.29
2023-03-07T19:26:43.337Z,74.00
2023-03-07T19:29:13.135Z,74.01
2023-03-07T19:31:43.753Z,73.65
2023-03-07T19:34:12.509Z,72.96
2023-03-07T19:36:41.550Z,72.51
2023-03-07T19:39:14.961Z,72.26
2023-03-07T19:41:47.858Z,72.11
2023-03-07T19:44:17.276Z,71.71
2023-03-07T19:46:47.275Z,71.43
2023-03-07T19:49:18.851Z,71.35
2023-03-07T19:51:47.224Z,71.57
2023-03-07T19:54:16.423Z,71.59
2023-03-07T19:56:46.285Z,71.23
2023-03-07T19:59:15.108Z,71.32
2023-03-07T20:01:43.455Z,71.42
2023-03-07T20:04:13.133Z,71.53
2023-03-07T20:06:43.145Z,71.49
2023-03-07T20:09:13.195Z,71.65
2023-03-07T20:11:43.843Z,71.58
2023-03-07T20:14:14.102Z,71.16
2023-03-07T20:16:42.671Z,71.10
2023-03-07T20:19:14.471Z,70.91
2023-03-07T20:21:49.648Z,70.68
2023-03-07T20:24:18.482Z,70.74
2023-03-07T20:26:47.955Z,70.65
2023-03-07T20:29:17.672Z,70.75
2023-03-07T20:31:46.041Z,70.56
2023-03-07T20:34:14.321Z,70.66
2023-03-07T20:36:43.970Z,71.33
2023-03-07T20:39:15.555Z,70.99
2023-03-07T20:41:45.070Z,71.60
2023-03-07T20:44:15.627Z,71.63
2023-03-07T20:46:45.199Z,71.97
2023-03-07T20:49:15.556Z,71.51
2023-03-07T20:51:45.070Z,71.50
2023-03-07T20:54:15.852Z,72.23
2023-03-07T20:56:45.830Z,72.56
2023-03-07T20:59:16.604Z,72.94
2023-03-07T21:01:46.621Z,72.84
2023-03-07T21:04:17.808Z,73.19
2023-03-07T21:06:46.713Z,73.19
2023-03-07T21:09:17.556Z,72.87
2023-03-07T21:11:49.023Z,72.81
2023-03-07T21:14:19.035Z,72.49
2023-03-07T21:16:49.028Z,72.50
2023-03-07T21:19:17.477Z,72.70
2023-03-07T21:21:46.252Z,72.25
2023-03-07T21:24:15.493Z,72.06
2023-03-07T21:26:44.294Z,72.39
2023-03-07T21:29:13.973Z,73.48
2023-03-07T21:31:42.460Z,74.52
2023-03-07T21:34:15.445Z,74.36
2023-03-07T21:36:43.973Z,74.53
2023-03-07T21:39:12.917Z,73.87
2023-03-07T21:41:41.410Z,73.73
2023-03-07T21:44:11.037Z,73.12
2023-03-07T21:46:39.397Z,73.51
2023-03-07T21:49:07.941Z,73.50
2023-03-07T21:51:37.641Z,73.35
2023-03-07T21:54:07.003Z,74.07
2023-03-07T21:56:35.410Z,74.27
2023-03-07T21:59:04.596Z,74.37
2023-03-07T22:01:36.585Z,74.79
2023-03-07T22:04:05.014Z,74.65
2023-03-07T22:06:33.262Z,74.91
2023-03-07T22:09:03.141Z,75.04
2023-03-07T22:11:31.423Z,74.68
2023-03-07T22:13:59.760Z,75.03
2023-03-07T22:16:28.066Z,74.92
2023-03-07T22:18:57.400Z,74.43
2023-03-07T22:21:26.722Z,74.44
2023-03-07T22:23:57.934Z,74.48
2023-03-07T22:26:29.432Z,74.35
2023-03-07T22:28:58.099Z,74.04
2023-03-07T22:31:27.196Z,74.06
2023-03-07T22:33:55.604Z,74.00
2023-03-07T22:36:23.966Z,73.70
2023-03-07T22:38:56.112Z,73.49
2023-03-07T22:41:27.399Z,73.62
2023-03-07T22:43:55.649Z,73.01
2023-03-07T22:46:24.612Z,73.06
2023-03-07T22:48:54.032Z,72.78
2023-03-07T22:51:24.382Z,72.95
2023-03-07T22:53:53.313Z,73.00
2023-03-07T22:56:24.202Z,73.38
2023-03-07T22:58:54.059Z,73.34
2023-03-07T23:01:25.201Z,73.22
2023-03-07T23:03:55.734Z,73.54
2023-03-07T23:06:25.526Z,74.42
2023-03-07T23:08:54.921Z,74.34
2023-03-07T23:11:25.579Z,75.19
2023-03-07T23:13:55.949Z,74.96
2023-03-07T23:16:27.384Z,75.69
2023-03-07T23:18:59.398Z,76.18
2023-03-07T23:21:30.729Z,76.66
2023-03-07T23:24:01.217Z,76.11
2023-03-07T23:26:32.697Z,75.89
2023-03-07T23:29:03.090Z,75.19
2023-03-07T23:31:34.737Z,74.77
2023-03-07T23:34:07.118Z,74.37
2023-03-07T23:36:36.895Z,74.23
2023-03-07T23:39:05.761Z,74.31
2023-03-07T23:41:34.075Z,73.98
2023-03-07T23:44:04.158Z,73.48
2023-03-07T23:46:33.429Z,73.73
2023-03-07T23:49:01.856Z,73.20
2023-03-07T23:51:30.551Z,72.57
2023-03-07T23:53:58.851Z,72.50
2023-03-07T23:56:27.138Z,71.83
2023-03-07T23:58:55.837Z,71.51
